createdAt,value
2018-07-27T00:00:12.296Z,78.48
2018-07-27T00:02:42.141Z,78.40
2018-07-27T00:05:11.559Z,78.11
2018-07-27T00:07:41.730Z,77.87
2018-07-27T00:10:15.792Z,78.22
2018-07-27T00:12:45.432Z,78.35
2018-07-27T00:15:15.679Z,77.94
2018-07-27T00:17:45.124Z,77.83
2018-07-27T00:20:14.663Z,78.02
2018-07-27T00:22:44.317Z,78.75
2018-07-27T00:25:13.957Z,78.66
2018-07-27T00:27:43.519Z,78.97
2018-07-27T00:30:12.937Z,78.82
2018-07-27T00:32:42.755Z,79.48
2018-07-27T00:35:12.160Z,78.77
2018-07-27T00:37:41.670Z,78.55
2018-07-27T00:40:11.300Z,78.47
2018-07-27T00:42:40.759Z,79.10
2018-07-27T00:45:10.215Z,79.03
2018-07-27T00:47:39.805Z,79.35
2018-07-27T00:50:09.436Z,79.81
2018-07-27T00:52:39.011Z,79.29
2018-07-27T00:55:09.007Z,79.37
2018-07-27T00:57:38.977Z,79.08
2018-07-27T01:00:08.602Z,79.48
2018-07-27T01:02:38.289Z,79.98
2018-07-27T01:05:07.618Z,79.09
2018-07-27T01:07:37.180Z,79.75
2018-07-27T01:10:06.604Z,79.36
2018-07-27T01:12:36.297Z,79.85
2018-07-27T01:15:06.520Z,79.38
2018-07-27T01:17:36.502Z,79.92
2018-07-27T01:20:07.500Z,79.88
2018-07-27T01:22:37.240Z,80.50
2018-07-27T01:25:06.817Z,80.67
2018-07-27T01:27:36.420Z,81.03
2018-07-27T01:30:07.783Z,80.32
2018-07-27T01:32:37.246Z,79.71
2018-07-27T01:35:06.737Z,80.21
2018-07-27T01:37:36.482Z,80.17
2018-07-27T01:40:07.261Z,79.95
2018-07-27T01:42:36.923Z,79.87
2018-07-27T01:45:07.107Z,79.93
2018-07-27T01:47:36.759Z,79.72
2018-07-27T01:50:06.825Z,79.50
2018-07-27T01:52:36.283Z,79.93
2018-07-27T01:55:05.779Z,79.81
2018-07-27T01:57:35.457Z,79.69
2018-07-27T02:00:06.102Z,79.46
2018-07-27T02:02:35.625Z,80.15
2018-07-27T02:05:05.611Z,79.08
2018-07-27T02:07:35.462Z,78.99
2018-07-27T02:10:05.157Z,79.71
2018-07-27T02:12:34.671Z,78.29
2018-07-27T02:15:04.416Z,78.90
2018-07-27T02:17:33.946Z,78.90
2018-07-27T02:20:03.299Z,77.70
2018-07-27T02:22:33.055Z,78.47
2018-07-27T02:25:03.263Z,79.67
2018-07-27T02:27:32.917Z,78.95
2018-07-27T02:30:02.381Z,79.27
2018-07-27T02:32:31.978Z,79.67
2018-07-27T02:35:01.493Z,78.52
2018-07-27T02:37:30.996Z,78.76
2018-07-27T02:40:00.384Z,79.15
2018-07-27T02:42:30.582Z,79.60
2018-07-27T02:45:00.575Z,79.11
2018-07-27T02:47:30.160Z,79.43
2018-07-27T02:49:59.506Z,80.60
2018-07-27T02:52:29.045Z,79.46
2018-07-27T02:54:58.664Z,80.07
2018-07-27T02:57:28.163Z,80.47
2018-07-27T02:59:58.413Z,79.49
2018-07-27T03:02:27.932Z,79.26
2018-07-27T03:04:57.433Z,79.89
2018-07-27T03:07:27.135Z,80.01
2018-07-27T03:09:56.613Z,79.86
2018-07-27T03:12:26.345Z,79.63
2018-07-27T03:14:55.740Z,79.97
2018-07-27T03:17:25.295Z,79.26
2018-07-27T03:19:55.268Z,79.75
2018-07-27T03:22:24.800Z,79.77
2018-07-27T03:24:54.767Z,79.38
2018-07-27T03:27:25.277Z,79.73
2018-07-27T03:29:54.735Z,80.11
2018-07-27T03:32:24.333Z,80.21
2018-07-27T03:34:54.041Z,80.49
2018-07-27T03:37:23.657Z,80.32
2018-07-27T03:39:53.495Z,80.14
2018-07-27T03:42:23.147Z,81.41
2018-07-27T03:44:52.982Z,80.02
2018-07-27T03:47:22.662Z,80.03
2018-07-27T03:49:53.160Z,79.89
2018-07-27T03:52:23.319Z,79.19
2018-07-27T03:54:52.903Z,79.92
2018-07-27T03:57:22.399Z,79.76
2018-07-27T03:59:52.516Z,79.76
2018-07-27T04:02:22.087Z,80.10
2018-07-27T04:04:51.720Z,80.51
2018-07-27T04:07:21.443Z,79.84
2018-07-27T04:09:50.840Z,79.34
2018-07-27T04:12:24.446Z,80.20
2018-07-27T04:14:54.870Z,81.01
2018-07-27T04:17:24.441Z,80.11
2018-07-27T04:19:54.247Z,80.15
2018-07-27T04:22:23.968Z,80.37
2018-07-27T04:24:53.715Z,80.42
2018-07-27T04:27:23.161Z,80.18
2018-07-27T04:29:52.639Z,80.33
2018-07-27T04:32:22.238Z,80.16
2018-07-27T04:34:51.799Z,79.39
2018-07-27T04:37:21.378Z,80.07
2018-07-27T04:39:50.827Z,80.64
2018-07-27T04:42:20.338Z,79.52
2018-07-27T04:44:49.796Z,79.29
2018-07-27T04:47:19.631Z,79.41
2018-07-27T04:49:49.725Z,79.77
2018-07-27T04:52:19.325Z,79.74
2018-07-27T04:54:48.737Z,79.58
2018-07-27T04:57:18.185Z,78.65
2018-07-27T04:59:47.617Z,80.36
2018-07-27T05:02:25.795Z,80.53
2018-07-27T05:04:55.316Z,80.61
2018-07-27T05:07:25.139Z,79.27
2018-07-27T05:09:54.622Z,78.94
2018-07-27T05:12:24.101Z,79.66
2018-07-27T05:14:53.534Z,78.79
2018-07-27T05:17:23.055Z,78.83
2018-07-27T05:19:52.420Z,78.75
2018-07-27T05:22:22.675Z,78.54
2018-07-27T05:24:52.115Z,79.14
2018-07-27T05:27:23.479Z,78.49
2018-07-27T05:29:53.353Z,77.92
2018-07-27T05:32:23.621Z,76.49
2018-07-27T05:34:52.973Z,76.65
2018-07-27T05:37:22.393Z,76.54
2018-07-27T05:39:51.874Z,75.92
2018-07-27T05:42:21.280Z,75.53
2018-07-27T05:44:50.973Z,76.04
2018-07-27T05:47:20.441Z,74.45
2018-07-27T05:49:50.033Z,75.59
2018-07-27T05:52:19.613Z,74.29
2018-07-27T05:54:49.122Z,73.13
2018-07-27T05:57:18.573Z,72.91
2018-07-27T05:59:48.142Z,73.22
2018-07-27T06:02:17.680Z,72.23
2018-07-27T06:04:47.195Z,72.05
2018-07-27T06:07:16.572Z,71.64
2018-07-27T06:09:46.081Z,71.36
2018-07-27T06:12:15.360Z,70.92
2018-07-27T06:14:44.913Z,71.89
2018-07-27T06:17:14.332Z,70.05
2018-07-27T06:19:43.872Z,71.60
2018-07-27T06:22:13.453Z,68.96
2018-07-27T06:24:48.632Z,68.47
2018-07-27T06:27:18.613Z,68.08
2018-07-27T06:29:49.102Z,68.10
2018-07-27T06:32:19.619Z,67.43
2018-07-27T06:34:49.052Z,67.84
2018-07-27T06:37:18.577Z,66.76
2018-07-27T06:39:48.601Z,67.09
2018-07-27T06:42:18.003Z,67.28
2018-07-27T06:44:47.481Z,67.08
2018-07-27T06:47:16.761Z,67.74
2018-07-27T06:49:46.204Z,66.93
2018-07-27T06:52:15.784Z,66.65
2018-07-27T06:54:45.341Z,66.30
2018-07-27T06:57:15.702Z,66.42
2018-07-27T06:59:45.284Z,66.94
2018-07-27T07:02:14.832Z,65.67
2018-07-27T07:04:44.442Z,64.02
2018-07-27T07:07:13.823Z,65.19
2018-07-27T07:09:43.322Z,64.90
2018-07-27T07:12:12.763Z,65.07
2018-07-27T07:14:42.349Z,64.81
2018-07-27T07:17:11.924Z,63.78
2018-07-27T07:19:41.549Z,63.80
2018-07-27T07:22:10.982Z,61.01
2018-07-27T07:24:40.602Z,59.28
2018-07-27T07:27:10.181Z,60.10
2018-07-27T07:29:39.701Z,60.26
2018-07-27T07:32:09.242Z,60.17
2018-07-27T07:34:38.840Z,59.01
2018-07-27T07:37:08.261Z,58.70
2018-07-27T07:39:37.680Z,58.55
2018-07-27T07:42:07.128Z,58.24
2018-07-27T07:44:36.629Z,58.47
2018-07-27T07:47:06.151Z,58.50
2018-07-27T07:49:35.641Z,56.15
2018-07-27T07:52:05.340Z,57.80
2018-07-27T07:54:35.700Z,56.28
2018-07-27T07:57:05.402Z,53.28
2018-07-27T07:59:34.860Z,51.45
2018-07-27T08:02:04.589Z,53.97
2018-07-27T08:04:34.300Z,51.64
2018-07-27T08:07:03.780Z,48.24
2018-07-27T08:09:33.540Z,51.19
2018-07-27T08:12:02.881Z,50.73
2018-07-27T08:14:32.420Z,48.48
